Dades meteomassalio
Diari Summary for Setembre 22, 2017 Units:  Metric    English   Both
« Previous Day
Next Day »
Diari Semanal Mensual Anual Personalitzat
  Maxima: Minima: Mijana:
Temperatura: -17.8 °C -10.7 °C -8.7 °C
Rosada: -17.8 °C -12.1 °C -10.4 °C
Humitat: Humidity % 64 % 82 %
Velocitat del vent: 0 km/h 0 km/h 3.7 km/h
Racha vent: 0 km/h - -
Vent:- - SW
Pressio: 0 hPa 34510.1 hPa -
Pluja: 12.7 mm    
Historical Graphs
 
 
Tabular Data for Setembre 22, 2017
Time Temperature Dew Point Pressure Wind Wind Speed Wind Gust Humidity Rainfall Rate (Hourly) solar Conditions
-17.8 °C -17.8 °C 0 hPa Calm     Humidity % 0 mm SolarRadiationWatts/m^2 W/m2 Conditions
00:03 -9.4 °C -11.2 °C 34510.1 hPa Calm     81 % 0 mm 0.0 W/m2 CLR
00:08 -9.4 °C -11.2 °C 34510.1 hPa Calm     81 % 0 mm 0.0 W/m2 CLR
00:13 -9.4 °C -11.2 °C 34510.1 hPa Calm     81 % 0 mm 0.0 W/m2 CLR
00:18 -9.4 °C -11.2 °C 34510.1 hPa Calm     82 % 0 mm 0.0 W/m2 CLR
00:23 -9.4 °C -11.2 °C 34510.1 hPa Calm     81 % 0 mm 0.0 W/m2 CLR
00:28 -9.4 °C -11.2 °C 34520.3 hPa Calm     81 % 0 mm 0.0 W/m2 CLR
00:33 -9.4 °C -11.2 °C 34520.3 hPa Calm     82 % 0 mm 0.0 W/m2 CLR
00:38 -9.4 °C -11.1 °C 34520.3 hPa Calm     83 % 0 mm 0.0 W/m2 CLR
00:43 -9.1 °C -10.7 °C 34520.3 hPa Calm     83 % 0 mm 0.0 W/m2 CLR
00:48 -9.1 °C -10.8 °C 34520.3 hPa Calm     82 % 0 mm 0.0 W/m2 CLR
00:53 -9.1 °C -10.8 °C 34520.3 hPa Calm     82 % 0 mm 0.0 W/m2 CLR
00:58 -9.1 °C -10.8 °C 34520.3 hPa Calm     82 % 0 mm 0.0 W/m2 CLR
01:03 -9.1 °C -10.7 °C 34533.8 hPa Calm     83 % 0 mm 0.0 W/m2 CLR
01:08 -9.1 °C -10.6 °C 34533.8 hPa Calm     84 % 0 mm 0.0 W/m2 CLR
01:13 -9.1 °C -10.6 °C 34533.8 hPa Calm     84 % 0 mm 0.0 W/m2 CLR
01:18 -9.1 °C -10.7 °C 34533.8 hPa Calm     83 % 0 mm 0.0 W/m2 CLR
01:23 -8.8 °C -10.4 °C 34533.8 hPa Calm     83 % 0 mm 0.0 W/m2 CLR
01:28 -8.8 °C -10.3 °C 34533.8 hPa Calm     84 % 0 mm 0.0 W/m2 CLR
01:33 -8.8 °C -10.3 °C 34533.8 hPa Calm     84 % 0 mm 0.0 W/m2 CLR
01:38 -8.8 °C -10.3 °C 34520.3 hPa Calm     84 % 0 mm 0.0 W/m2 CLR
01:43 -8.8 °C -10.2 °C 34520.3 hPa Calm     85 % 0 mm 0.0 W/m2 CLR
01:48 -8.8 °C -10.3 °C 34520.3 hPa Calm     84 % 0 mm 0.0 W/m2 CLR
01:53 -8.8 °C -10.2 °C 34533.8 hPa Calm     85 % 0 mm 0.0 W/m2 CLR
01:58 -8.8 °C -10.1 °C 34533.8 hPa Calm     86 % 0 mm 0.0 W/m2 CLR
02:03 -8.8 °C -10.1 °C 34533.8 hPa Calm     87 % 0 mm 0.0 W/m2 CLR
02:08 -8.8 °C -9.9 °C 34533.8 hPa Calm     88 % 0 mm 0.0 W/m2 CLR
02:13 -8.8 °C -9.9 °C 34533.8 hPa Calm     88 % 0 mm 0.0 W/m2 CLR
02:18 -8.8 °C -9.9 °C 34533.8 hPa Calm     88 % 0 mm 0.0 W/m2 CLR
02:23 -9.1 °C -10.3 °C 34533.8 hPa Calm     87 % 0 mm 0.0 W/m2 CLR
02:28 -9.1 °C -10.2 °C 34533.8 hPa Calm     88 % 0 mm 0.0 W/m2 CLR
02:33 -9.1 °C -10.3 °C 34533.8 hPa Calm     87 % 0 mm 0.0 W/m2 CLR
02:38 -9.1 °C -10.3 °C 34533.8 hPa Calm     87 % 0 mm 0.0 W/m2 CLR
02:43 -9.1 °C -10.3 °C 34533.8 hPa Calm     87 % 0 mm 0.0 W/m2 CLR
02:48 -9.1 °C -10.2 °C 34533.8 hPa Calm     88 % 0 mm 0.0 W/m2 CLR
02:53 -9.4 °C -10.6 °C 34544 hPa Calm     88 % 0 mm 0.0 W/m2 CLR
02:58 -9.4 °C -10.6 °C 34544 hPa Calm     88 % 0 mm 0.0 W/m2 CLR
03:03 -9.1 °C -10.2 °C 34533.8 hPa Calm     88 % 0 mm 0.0 W/m2 CLR
03:08 -9.1 °C -10.2 °C 34533.8 hPa Calm     89 % 0 mm 0.0 W/m2 CLR
03:13 -9.1 °C -10.2 °C 34533.8 hPa Calm     89 % 0 mm 0.0 W/m2 CLR
03:18 -9.1 °C -10.2 °C 34533.8 hPa Calm     89 % 0 mm 0.0 W/m2 CLR
03:23 -9.1 °C -10.2 °C 34533.8 hPa Calm     89 % 0 mm 0.0 W/m2 CLR
03:28 -8.8 °C -9.8 °C 34544 hPa SSE 26.9 km/h 26.9 km/h 89 % 0 mm 0.0 W/m2 CLR
03:33 -8.8 °C -9.8 °C 34544 hPa South 26.9 km/h 26.9 km/h 90 % 0 mm 0.0 W/m2 CLR
03:38 -8.5 °C -9.4 °C 34544 hPa Calm     90 % 0 mm 0.0 W/m2 CLR
03:43 -8.8 °C -9.8 °C 34544 hPa South 20.9 km/h 20.9 km/h 90 % 0 mm 0.0 W/m2 CLR
03:48 -8.8 °C -9.8 °C 34544 hPa SSE 15 km/h 15 km/h 90 % 0 mm 0.0 W/m2 CLR
03:53 -8.8 °C -9.8 °C 34544 hPa Calm     90 % 0 mm 0.0 W/m2 CLR
03:58 -8.8 °C -9.8 °C 34544 hPa SSE 3.1 km/h   90 % 0 mm 0.0 W/m2 CLR
04:03 -8.8 °C -9.8 °C 34544 hPa SE 17.9 km/h 17.9 km/h 90 % 0 mm 0.0 W/m2 CLR
04:04 -8.8 °C -9.8 °C 34544 hPa SSE 11.9 km/h 11.9 km/h 90 % 0 mm 0.0 W/m2 CLR
04:09 -8.8 °C -9.8 °C 34544 hPa SSE 17.9 km/h 17.9 km/h 90 % 0 mm 0.0 W/m2 CLR
04:14 -8.8 °C -9.8 °C 34544 hPa Calm     90 % 0 mm 0.0 W/m2 CLR
04:19 -8.8 °C -9.8 °C 34544 hPa Calm     89 % 0 mm 0.0 W/m2 CLR
04:24 -8.8 °C -9.8 °C 34544 hPa SSE 6 km/h   89 % 0 mm 0.0 W/m2 CLR
04:29 -8.8 °C -9.8 °C 34544 hPa Calm     90 % 0 mm 0.0 W/m2 CLR
04:34 -8.8 °C -9.8 °C 34544 hPa Calm     90 % 0 mm 0.0 W/m2 CLR
04:39 -8.8 °C -9.8 °C 34544 hPa South 10.3 km/h 10.3 km/h 90 % 0 mm 0.0 W/m2 CLR
04:44 -8.5 °C -9.4 °C 34544 hPa South 17.9 km/h 17.9 km/h 90 % 0 mm 0.0 W/m2 CLR
04:49 -8.8 °C -9.9 °C 34544 hPa SSW 26.9 km/h 26.9 km/h 88 % 0 mm 0.0 W/m2 CLR
04:54 -8.8 °C -10.1 °C 34544 hPa South 17.9 km/h 17.9 km/h 87 % 0 mm 0.0 W/m2 CLR
04:59 -8.8 °C -10.2 °C 34544 hPa South 20.9 km/h 20.9 km/h 85 % 0 mm 0.0 W/m2 CLR
05:04 -8.5 °C -10.1 °C 34544 hPa South 17.9 km/h 17.9 km/h 84 % 0 mm 0.0 W/m2 CLR
05:09 -8.5 °C -10.1 °C 34554.1 hPa SSE 20.9 km/h 20.9 km/h 83 % 0 mm 0.0 W/m2 CLR
05:14 -8.5 °C -10.2 °C 34554.1 hPa SSW 20.9 km/h 20.9 km/h 82 % 0 mm 0.0 W/m2 CLR
05:19 -8.5 °C -10.2 °C 34554.1 hPa SSW 15 km/h   82 % 0 mm 0.0 W/m2 CLR
05:24 -8.5 °C -10.3 °C 34554.1 hPa Calm     81 % 0 mm 0.0 W/m2 CLR
05:29 -8.8 °C -10.7 °C 34554.1 hPa Calm     81 % 0 mm 0.0 W/m2 CLR
05:34 -8.8 °C -10.7 °C 34554.1 hPa Calm     81 % 0 mm 0.0 W/m2 CLR
05:39 -8.8 °C -10.7 °C 34554.1 hPa Calm     81 % 0 mm 0.0 W/m2 CLR
05:44 -9.1 °C -10.8 °C 34554.1 hPa Calm     82 % 0 mm 0.0 W/m2 CLR
05:49 -9.4 °C -11.2 °C 34554.1 hPa Calm     82 % 0 mm 0.0 W/m2 CLR
05:54 -9.4 °C -11.2 °C 34554.1 hPa Calm     81 % 0 mm 0.0 W/m2 CLR
05:59 -9.8 °C -11.6 °C 34554.1 hPa Calm     81 % 0 mm 0.0 W/m2 CLR
06:00 -9.8 °C -11.6 °C 34554.1 hPa Calm     81 % 0 mm 0.0 W/m2 CLR
06:05 -9.8 °C -11.6 °C 34554.1 hPa Calm     81 % 0 mm 0.0 W/m2 CLR
06:10 -10.1 °C -11.8 °C 34554.1 hPa Calm     81 % 0 mm 0.0 W/m2 CLR
06:15 -10.1 °C -11.7 °C 34554.1 hPa Calm     82 % 0 mm 0.0 W/m2 CLR
06:20 -10.1 °C -11.7 °C 34544 hPa Calm     82 % 0 mm 0.0 W/m2 CLR
06:25 -10.1 °C -11.7 °C 34554.1 hPa Calm     82 % 0 mm 0.0 W/m2 CLR
06:30 -10.4 °C -12.1 °C 34554.1 hPa Calm     82 % 0 mm 0.0 W/m2 CLR
06:35 -10.4 °C -11.9 °C 34554.1 hPa Calm     83 % 0 mm 0.0 W/m2 CLR
06:40 -10.4 °C -11.9 °C 34554.1 hPa Calm     83 % 0 mm 0.0 W/m2 CLR
06:45 -10.4 °C -11.9 °C 34554.1 hPa Calm     83 % 0 mm 0.0 W/m2 CLR
06:50 -10.4 °C -11.9 °C 34554.1 hPa Calm     83 % 0 mm 0.0 W/m2 CLR
06:55 -10.4 °C -11.9 °C 34554.1 hPa Calm     83 % 0 mm 0.0 W/m2 CLR
07:00 -10.4 °C -11.9 °C 34554.1 hPa Calm     83 % 0 mm 0.0 W/m2 CLR
07:05 -10.4 °C -11.9 °C 34554.1 hPa Calm     83 % 0 mm 0.0 W/m2 CLR
07:10 -10.4 °C -11.8 °C 34554.1 hPa Calm     84 % 0 mm 0.0 W/m2 CLR
07:15 -10.4 °C -11.8 °C 34554.1 hPa Calm     84 % 0 mm 0.0 W/m2 CLR
07:20 -10.7 °C -12.1 °C 34567.7 hPa Calm     84 % 0 mm 0.0 W/m2 CLR
07:25 -10.7 °C -12.1 °C 34554.1 hPa Calm     85 % 0 mm 0.0 W/m2 CLR
07:30 -10.7 °C -12.1 °C 34554.1 hPa Calm     85 % 0 mm 0.0 W/m2 CLR
07:35 -10.7 °C -11.9 °C 34567.7 hPa Calm     86 % 0 mm 0.0 W/m2 CLR
07:40 -10.7 °C -11.9 °C 34567.7 hPa Calm     86 % 0 mm 0.0 W/m2 OVC
07:45 -10.7 °C -11.9 °C 34567.7 hPa Calm     86 % 0 mm 0.0 W/m2 OVC
07:50 -10.7 °C -11.9 °C 34567.7 hPa Calm     86 % 0 mm 5.0 W/m2 OVC
07:55 -10.7 °C -11.9 °C 34567.7 hPa Calm     86 % 0 mm 7.0 W/m2 BKN
08:00 -10.7 °C -11.8 °C 34567.7 hPa Calm     87 % 0 mm 12.0 W/m2 BKN
08:05 -10.7 °C -11.8 °C 34567.7 hPa Calm     87 % 0 mm 16.0 W/m2 BKN
08:10 -10.7 °C -11.8 °C 34567.7 hPa Calm     87 % 0 mm 26.0 W/m2 BKN
08:15 -10.7 °C -11.8 °C 34567.7 hPa Calm     87 % 0 mm 46.0 W/m2 BKN
08:20 -10.7 °C -11.8 °C 34567.7 hPa Calm     88 % 0 mm 77.0 W/m2 FEW
08:25 -10.7 °C -11.8 °C 34567.7 hPa Calm     88 % 0 mm 105.0 W/m2 CLR
08:30 -10.4 °C -11.4 °C 34567.7 hPa Calm     88 % 0 mm 127.0 W/m2 CLR
08:36 -10.4 °C -11.6 °C 34577.8 hPa Calm     87 % 0 mm 127.0 W/m2 CLR
08:41 -10.1 °C -11.2 °C 34577.8 hPa Calm     87 % 0 mm 100.0 W/m2 CLR
08:46 -9.8 °C -10.9 °C 34577.8 hPa Calm     87 % 0 mm 104.0 W/m2 CLR
08:51 -9.8 °C -10.9 °C 34577.8 hPa Calm     87 % 0 mm 86.0 W/m2 CLR
08:56 -9.4 °C -10.7 °C 34577.8 hPa Calm     86 % 0 mm 88.0 W/m2 CLR
09:01 -9.4 °C -10.7 °C 34577.8 hPa Calm     86 % 0 mm 97.0 W/m2 CLR
09:06 -9.4 °C -10.7 °C 34577.8 hPa Calm     86 % 0 mm 104.0 W/m2 CLR
09:11 -9.1 °C -10.5 °C 34577.8 hPa Calm     85 % 0 mm 105.0 W/m2 CLR
09:16 -9.1 °C -10.6 °C 34591.4 hPa Calm     84 % 0 mm 104.0 W/m2 CLR
09:21 -8.8 °C -10.4 °C 34591.4 hPa Calm     83 % 0 mm 102.0 W/m2 CLR
09:26 -8.8 °C -10.4 °C 34591.4 hPa Calm     83 % 0 mm 97.0 W/m2 CLR
09:31 -8.8 °C -10.4 °C 34591.4 hPa Calm     83 % 0 mm 86.0 W/m2 CLR
09:36 -8.8 °C -10.5 °C 34601.5 hPa Calm     82 % 0 mm 79.0 W/m2 CLR
09:41 -8.5 °C -10.3 °C 34601.5 hPa Calm     81 % 0 mm 81.0 W/m2 FEW
09:46 -8.5 °C -10.6 °C 34601.5 hPa Calm     79 % 0 mm 84.0 W/m2 FEW
09:51 -8.5 °C -10.8 °C 34611.7 hPa WSW 15 km/h 15 km/h 77 % 0 mm 104.0 W/m2 CLR
09:56 -8.5 °C -10.9 °C 34611.7 hPa SSW 6 km/h   76 % 0 mm 120.0 W/m2 CLR
10:01 -8.2 °C -10.7 °C 34611.7 hPa WSW 6 km/h 6 km/h 75 % 0 mm 139.0 W/m2 CLR
10:06 -7.9 °C -10.5 °C 34611.7 hPa Calm     74 % 0 mm 116.0 W/m2 CLR
10:11 -7.9 °C -10.6 °C 34625.2 hPa SW 11.9 km/h 11.9 km/h 73 % 0 mm 128.0 W/m2 CLR
10:16 -7.9 °C -10.7 °C 34625.2 hPa SW 29.8 km/h 29.8 km/h 72 % 0 mm 135.0 W/m2 CLR
10:21 -7.6 °C -10.4 °C 34625.2 hPa SSW 12.9 km/h 12.9 km/h 72 % 0 mm 176.0 W/m2 CLR
10:26 -7.6 °C -10.6 °C 34625.2 hPa SSW 17.9 km/h 17.9 km/h 71 % 0 mm 209.0 W/m2 CLR
10:31 -7.6 °C -10.4 °C 34625.2 hPa SW 11.9 km/h 11.9 km/h 72 % 0 mm 144.0 W/m2 CLR
10:36 -7.6 °C -10.6 °C 34635.4 hPa SSW 20.9 km/h 20.9 km/h 71 % 0 mm 100.0 W/m2 CLR
10:41 -7.6 °C -10.6 °C 34635.4 hPa SW 17.9 km/h 17.9 km/h 71 % 0 mm 84.0 W/m2 CLR
10:46 -7.6 °C -10.4 °C 34635.4 hPa South 15.6 km/h 15.6 km/h 72 % 0 mm 79.0 W/m2 CLR
10:51 -7.9 °C -10.5 °C 34635.4 hPa SSW 17.9 km/h 17.9 km/h 74 % 0 mm 84.0 W/m2 FEW
10:56 -7.9 °C -10.2 °C 34635.4 hPa SSW 9 km/h 9 km/h 77 % 7.62 mm 91.0 W/m2 RA
11:01 -8.2 °C -10.2 °C 34645.6 hPa South 15 km/h 15 km/h 79 % 7.62 mm 67.0 W/m2 CLR
11:06 -8.2 °C -10.4 °C 34635.4 hPa East 9 km/h   78 % 7.62 mm 67.0 W/m2 FEW
11:11 -8.5 °C -10.3 °C 34635.4 hPa Calm     81 % 12.7 mm 69.0 W/m2 RA
11:16 -8.5 °C -10.2 °C 34645.6 hPa Calm     82 % 12.7 mm 58.0 W/m2 FEW
11:22 -8.5 °C -10.1 °C 34645.6 hPa Calm     83 % 12.7 mm 67.0 W/m2 SCT
11:26 -8.5 °C -10.1 °C 34645.6 hPa Calm     83 % 12.7 mm 67.0 W/m2 SCT
11:32 -8.5 °C -10.1 °C 34645.6 hPa Calm     83 % 12.7 mm 105.0 W/m2 FEW
11:37 -8.2 °C -9.7 °C 34645.6 hPa Calm     84 % 12.7 mm 127.0 W/m2 CLR
11:41 -8.2 °C -9.7 °C 34645.6 hPa NNW 3.1 km/h   84 % 12.7 mm 188.0 W/m2 CLR
11:47 -8.2 °C -9.6 °C 34645.6 hPa Calm     85 % 12.7 mm 234.0 W/m2 CLR
11:52 -7.9 °C -9.3 °C 34645.6 hPa Calm     85 % 12.7 mm 142.0 W/m2 CLR
11:57 -8.2 °C -9.7 °C 34645.6 hPa North 3.1 km/h   84 % 7.62 mm 153.0 W/m2 CLR
12:02 -7.9 °C -9.6 °C 34645.6 hPa Calm     83 % 7.62 mm 213.0 W/m2 CLR
12:07 -7.9 °C -9.6 °C 34645.6 hPa Calm     83 % 7.62 mm 265.0 W/m2 CLR
12:12 -7.9 °C -9.6 °C 34635.4 hPa Calm   0.3 km/h 82 % 0 mm 415.0 W/m2 CLR
12:17 -7.6 °C -9.4 °C 34645.6 hPa Calm     81 % 0 mm 404.0 W/m2 CLR
12:22 -7.6 °C -9.4 °C 34635.4 hPa NNW 6 km/h 6.3 km/h 81 % 0 mm 754.0 W/m2 CLR
12:27 -7.3 °C -9.5 °C 34635.4 hPa NNW 9 km/h   78 % 0 mm 612.0 W/m2 CLR
12:32 -7.6 °C -9.8 °C 34635.4 hPa Calm     78 % 0 mm 329.0 W/m2 CLR
12:37 -7.3 °C -9.7 °C 34635.4 hPa Calm     76 % 0 mm 325.0 W/m2 CLR
12:42 -7 °C -9.4 °C 34635.4 hPa Calm     76 % 0 mm 339.0 W/m2 CLR
12:47 -7.3 °C -9.7 °C 34635.4 hPa Calm     76 % 0 mm 397.0 W/m2 CLR
12:52 -7 °C -9.4 °C 34645.6 hPa Calm     76 % 0 mm 397.0 W/m2 CLR
12:57 -7 °C -9.6 °C 34635.4 hPa Calm     74 % 0 mm 823.0 W/m2 CLR
13:02 -6.7 °C -9.6 °C 34635.4 hPa Calm     72 % 0 mm 793.0 W/m2 CLR
13:07 -6.7 °C -9.2 °C 34645.6 hPa Calm     75 % 0 mm 782.0 W/m2 CLR
13:12 -6.3 °C -9.4 °C 34635.4 hPa Calm     71 % 0 mm 807.0 W/m2 CLR
13:17 -6.1 °C -9.4 °C 34635.4 hPa Calm     68 % 0 mm 802.0 W/m2 CLR
13:22 -6.1 °C -9.6 °C 34635.4 hPa Calm     67 % 0 mm 788.0 W/m2 CLR
13:27 -6.1 °C -9.6 °C 34635.4 hPa Calm     67 % 0 mm 932.0 W/m2 CLR
13:32 -6.1 °C -9.9 °C 34635.4 hPa Calm     64 % 0 mm 357.0 W/m2 CLR
13:37 -6.3 °C -10.2 °C 34635.4 hPa Calm     65 % 0 mm 316.0 W/m2 CLR
13:42 -6.1 °C -9.7 °C 34635.4 hPa North 11.9 km/h 11.9 km/h 66 % 0 mm 373.0 W/m2 CLR
13:47 -6.1 °C -9.6 °C 34645.6 hPa NNW 9 km/h 9 km/h 67 % 0 mm 366.0 W/m2 CLR
13:52 -6.1 °C -9.6 °C 34645.6 hPa WNW 12.9 km/h 12.9 km/h 67 % 0 mm 381.0 W/m2 CLR
13:57 -6.1 °C -9.7 °C 34645.6 hPa Calm     66 % 0 mm 355.0 W/m2 CLR
14:02 -6.1 °C -9.4 °C 34645.6 hPa NNW 9 km/h 9 km/h 68 % 0 mm 427.0 W/m2 CLR
14:07 -6.1 °C -9.4 °C 34645.6 hPa North 26.9 km/h 26.9 km/h 68 % 0 mm 320.0 W/m2 CLR
14:12 -6.1 °C -9.2 °C 34645.6 hPa WNW 23.8 km/h 23.8 km/h 70 % 0 mm 234.0 W/m2 CLR
14:17 -6.3 °C -9.5 °C 34645.6 hPa WNW 17.9 km/h 17.9 km/h 70 % 0 mm 229.0 W/m2 CLR
14:22 -6.3 °C -9.4 °C 34645.6 hPa WNW 23.3 km/h 23.3 km/h 71 % 0 mm 195.0 W/m2 CLR
14:27 -6.3 °C -9.4 °C 34645.6 hPa West 26.9 km/h 26.9 km/h 71 % 0 mm 206.0 W/m2 CLR
14:32 -6.7 °C -9.4 °C 34645.6 hPa WNW 31.1 km/h 31.1 km/h 73 % 0 mm 248.0 W/m2 CLR
14:37 -6.7 °C -9.2 °C 34645.6 hPa West 25.9 km/h 25.9 km/h 75 % 0 mm 285.0 W/m2 CLR
14:42 -6.7 °C -9 °C 34635.4 hPa West 29.8 km/h 29.8 km/h 77 % 0 mm 306.0 W/m2 CLR
14:47 -6.7 °C -8.8 °C 34635.4 hPa West 29.8 km/h 29.8 km/h 79 % 0 mm 315.0 W/m2 CLR
14:52 -6.7 °C -8.8 °C 34635.4 hPa West 26.9 km/h 26.9 km/h 78 % 0 mm 671.0 W/m2 CLR
14:57 -6.7 °C -8.8 °C 34635.4 hPa West 28.5 km/h 28.5 km/h 78 % 0 mm 250.0 W/m2 CLR
15:02 -7 °C -9.1 °C 34635.4 hPa West 26.9 km/h 26.9 km/h 79 % 0 mm 232.0 W/m2 CLR
15:07 -7 °C -8.9 °C 34645.6 hPa WSW 26.9 km/h 26.9 km/h 80 % 0 mm 206.0 W/m2 CLR
15:12 -7.3 °C -9.3 °C 34645.6 hPa NW 17.9 km/h 17.9 km/h 79 % 0 mm 193.0 W/m2 CLR
15:13 -7.3 °C -9.3 °C 34645.6 hPa WNW 20.8 km/h 20.8 km/h 79 % 0 mm 192.0 W/m2 CLR
15:18 -7.3 °C -9.2 °C 34645.6 hPa NW 15.6 km/h 15.6 km/h 80 % 0 mm 165.0 W/m2 CLR
15:23 -7.3 °C -9.2 °C 34645.6 hPa WNW 26.9 km/h 26.9 km/h 80 % 0 mm 132.0 W/m2 CLR
15:28 -7.3 °C -9.1 °C 34645.6 hPa West 7.7 km/h 7.7 km/h 81 % 0 mm 127.0 W/m2 CLR
15:33 -7.3 °C -9.1 °C 34645.6 hPa Calm     81 % 0 mm 141.0 W/m2 CLR
15:38 -7.3 °C -9.1 °C 34659.1 hPa Calm     82 % 0 mm 167.0 W/m2 CLR
15:44 -7.3 °C -9.1 °C 34645.6 hPa Calm     82 % 0 mm 165.0 W/m2 CLR
15:49 -7.3 °C -9.1 °C 34645.6 hPa Calm     82 % 0 mm 153.0 W/m2 CLR
15:54 -7.6 °C -9.3 °C 34635.4 hPa Calm     82 % 0 mm 155.0 W/m2 CLR
15:59 -7.6 °C -9.3 °C 34625.2 hPa Calm     82 % 0 mm 169.0 W/m2 CLR
16:04 -7.6 °C -9.2 °C 34625.2 hPa Calm     83 % 0 mm 146.0 W/m2 CLR
16:09 -7.6 °C -9.3 °C 34625.2 hPa Calm     82 % 0 mm 146.0 W/m2 CLR
16:14 -7.6 °C -9.4 °C 34625.2 hPa North 6 km/h 6 km/h 81 % 0 mm 190.0 W/m2 CLR
16:19 -7.3 °C -9.1 °C 34635.4 hPa Calm     82 % 0 mm 171.0 W/m2 CLR
16:24 -7.6 °C -9.3 °C 34635.4 hPa NNE 5.1 km/h 5.1 km/h 82 % 0 mm 100.0 W/m2 CLR
16:29 -7.6 °C -9.4 °C 34625.2 hPa Calm   0.8 km/h 81 % 0 mm 109.0 W/m2 CLR
16:34 -7.6 °C -9.4 °C 34625.2 hPa NNW 11.9 km/h 11.9 km/h 81 % 0 mm 97.0 W/m2 CLR
16:39 -7.6 °C -9.3 °C 34625.2 hPa Calm     82 % 0 mm 88.0 W/m2 CLR
16:44 -7.6 °C -9.3 °C 34611.7 hPa Calm     82 % 0 mm 100.0 W/m2 CLR
16:49 -7.6 °C -9.3 °C 34625.2 hPa Calm     82 % 0 mm 100.0 W/m2 CLR
16:54 -7.6 °C -9.3 °C 34611.7 hPa Calm     82 % 0 mm 93.0 W/m2 CLR
16:59 -7.6 °C -9.4 °C 34625.2 hPa Calm     81 % 0 mm 76.0 W/m2 CLR
17:04 -7.6 °C -9.4 °C 34611.7 hPa Calm     81 % 0 mm 98.0 W/m2 FEW
17:09 -7.6 °C -9.4 °C 34611.7 hPa Calm     81 % 0 mm 88.0 W/m2 CLR
17:14 -7.6 °C -9.4 °C 34611.7 hPa Calm     81 % 0 mm 86.0 W/m2 CLR
17:19 -7.6 °C -9.4 °C 34611.7 hPa Calm     81 % 0 mm 77.0 W/m2 CLR
17:24 -7.6 °C -9.6 °C 34611.7 hPa Calm     80 % 0 mm 67.0 W/m2 FEW
17:29 -7.6 °C -9.4 °C 34611.7 hPa Calm     81 % 0 mm 56.0 W/m2 FEW
17:34 -7.6 °C -9.4 °C 34611.7 hPa Calm     81 % 0 mm 49.0 W/m2 SCT
17:39 -7.6 °C -9.6 °C 34611.7 hPa Calm     80 % 0 mm 44.0 W/m2 SCT
17:44 -7.3 °C -9.2 °C 34611.7 hPa Calm     80 % 0 mm 53.0 W/m2 SCT
17:49 -7.3 °C -9.2 °C 34625.2 hPa Calm     80 % 0 mm 69.0 W/m2 SCT
17:54 -7.3 °C -9.2 °C 34611.7 hPa Calm     80 % 0 mm 74.0 W/m2 FEW
17:59 -7.3 °C -9.1 °C 34611.7 hPa Calm     81 % 0 mm 88.0 W/m2 FEW
18:04 -7.3 °C -9.1 °C 34611.7 hPa Calm     81 % 0 mm 120.0 W/m2 CLR
18:09 -7.3 °C -9.1 °C 34611.7 hPa Calm     81 % 0 mm 121.0 W/m2 CLR
18:14 -7.3 °C -9.1 °C 34611.7 hPa Calm     81 % 0 mm 95.0 W/m2 CLR
18:19 -7.3 °C -9.2 °C 34611.7 hPa Calm     80 % 0 mm 88.0 W/m2 CLR
18:24 -7.3 °C -9.2 °C 34601.5 hPa North 9 km/h 9 km/h 80 % 0 mm 90.0 W/m2 CLR
18:29 -7.3 °C -9.1 °C 34601.5 hPa NNE 12.9 km/h 12.9 km/h 81 % 0 mm 91.0 W/m2 CLR
18:34 -7.3 °C -9.2 °C 34601.5 hPa North 17.9 km/h 17.9 km/h 80 % 0 mm 104.0 W/m2 CLR
18:39 -7.3 °C -9.3 °C 34601.5 hPa NNE 9 km/h 9 km/h 79 % 0 mm 116.0 W/m2 CLR
18:49 -7.3 °C -9.5 °C 34611.7 hPa Calm     78 % 0 mm 105.0 W/m2 CLR
18:54 -7 °C -9.2 °C 34611.7 hPa Calm     78 % 0 mm 77.0 W/m2 CLR
18:59 -7.3 °C -9.6 °C 34611.7 hPa Calm     77 % 0 mm 62.0 W/m2 SCT
19:04 -7.3 °C -9.5 °C 34601.5 hPa Calm     78 % 0 mm 53.0 W/m2 SCT
19:09 -7.3 °C -9.5 °C 34611.7 hPa Calm     78 % 0 mm 49.0 W/m2 SCT
19:14 -7.6 °C -9.8 °C 34611.7 hPa Calm     78 % 0 mm 40.0 W/m2 BKN
19:19 -7.6 °C -9.8 °C 34611.7 hPa Calm     78 % 0 mm 28.0 W/m2 BKN
19:20 -7.6 °C -9.8 °C 34601.5 hPa Calm     78 % 0 mm 25.0 W/m2 BKN
19:25 -7.9 °C -10.1 °C 34611.7 hPa Calm     78 % 0 mm 16.0 W/m2 BKN
19:30 -8.2 °C -10.2 °C 34611.7 hPa Calm     79 % 0 mm 12.0 W/m2 BKN
19:35 -8.2 °C -10.2 °C 34611.7 hPa Calm     79 % 0 mm 9.0 W/m2 BKN
19:40 -8.5 °C -10.4 °C 34601.5 hPa Calm     80 % 0 mm 7.0 W/m2 BKN
19:45 -8.8 °C -10.7 °C 34601.5 hPa Calm     80 % 0 mm 5.0 W/m2 OVC
19:50 -8.8 °C -10.7 °C 34611.7 hPa Calm     80 % 0 mm 0.0 W/m2 OVC
19:55 -9.1 °C -10.9 °C 34611.7 hPa Calm     81 % 0 mm 0.0 W/m2 OVC
19:56 -9.1 °C -10.9 °C 34611.7 hPa Calm     81 % 0 mm 0.0 W/m2 OVC
20:01 -9.1 °C -10.9 °C 34611.7 hPa Calm     81 % 0 mm 0.0 W/m2 CLR
20:06 -9.4 °C -11.2 °C 34611.7 hPa Calm     82 % 0 mm 0.0 W/m2 CLR
20:11 -9.4 °C -11.2 °C 34611.7 hPa Calm     82 % 0 mm 0.0 W/m2 CLR
20:16 -9.4 °C -11.1 °C 34611.7 hPa Calm     83 % 0 mm 0.0 W/m2 CLR
20:21 -9.8 °C -11.4 °C 34611.7 hPa Calm     82 % 0 mm 0.0 W/m2 CLR
20:26 -9.8 °C -11.3 °C 34611.7 hPa Calm     83 % 0 mm 0.0 W/m2 CLR
20:31 -9.8 °C -11.2 °C 34611.7 hPa Calm     84 % 0 mm 0.0 W/m2 CLR
20:36 -10.1 °C -11.6 °C 34625.2 hPa Calm     84 % 0 mm 0.0 W/m2 CLR
20:41 -10.1 °C -11.4 °C 34625.2 hPa Calm     85 % 0 mm 0.0 W/m2 CLR
20:46 -10.1 °C -11.4 °C 34625.2 hPa Calm     85 % 0 mm 0.0 W/m2 CLR
20:51 -10.4 °C -11.6 °C 34625.2 hPa Calm     86 % 0 mm 0.0 W/m2 CLR
20:56 -10.4 °C -11.6 °C 34625.2 hPa Calm     86 % 0 mm 0.0 W/m2 CLR
21:01 -10.4 °C -11.6 °C 34635.4 hPa Calm     86 % 0 mm 0.0 W/m2 CLR
21:06 -10.4 °C -11.6 °C 34645.6 hPa Calm     86 % 0 mm 0.0 W/m2 CLR
21:11 -10.4 °C -11.6 °C 34645.6 hPa Calm     86 % 0 mm 0.0 W/m2 CLR
21:16 -10.1 °C -11.3 °C 34645.6 hPa Calm     86 % 0 mm 0.0 W/m2 CLR
21:21 -10.1 °C -11.2 °C 34659.1 hPa Calm     87 % 0 mm 0.0 W/m2 CLR
21:26 -10.1 °C -11.2 °C 34659.1 hPa Calm     87 % 0 mm 0.0 W/m2 CLR
21:31 -10.1 °C -11.2 °C 34659.1 hPa Calm     88 % 0 mm 0.0 W/m2 CLR
21:36 -10.1 °C -11.2 °C 34659.1 hPa Calm     88 % 0 mm 0.0 W/m2 CLR
21:41 -10.4 °C -11.4 °C 34659.1 hPa Calm     88 % 0 mm 0.0 W/m2 CLR
21:46 -10.4 °C -11.4 °C 34659.1 hPa Calm     88 % 0 mm 0.0 W/m2 CLR
21:51 -10.4 °C -11.4 °C 34659.1 hPa Calm     88 % 0 mm 0.0 W/m2 CLR
21:56 -10.4 °C -11.3 °C 34659.1 hPa Calm     89 % 0 mm 0.0 W/m2 CLR
22:01 -10.4 °C -11.3 °C 34659.1 hPa Calm     89 % 0 mm 0.0 W/m2 CLR
22:06 -10.4 °C -11.3 °C 34659.1 hPa Calm     89 % 0 mm 0.0 W/m2 CLR
22:11 -10.4 °C -11.3 °C 34669.3 hPa Calm     89 % 0 mm 0.0 W/m2 CLR
22:16 -10.4 °C -11.3 °C 34669.3 hPa Calm     89 % 0 mm 0.0 W/m2 CLR
22:21 -10.4 °C -11.3 °C 34669.3 hPa Calm     89 % 0 mm 0.0 W/m2 CLR
22:26 -10.4 °C -11.3 °C 34669.3 hPa Calm     90 % 0 mm 0.0 W/m2 CLR
22:31 -10.7 °C -11.6 °C 34669.3 hPa Calm     90 % 0 mm 0.0 W/m2 CLR
22:36 -10.4 °C -11.3 °C 34669.3 hPa Calm     90 % 0 mm 0.0 W/m2 CLR
22:41 -10.4 °C -11.3 °C 34669.3 hPa Calm     90 % 0 mm 0.0 W/m2 CLR
22:46 -10.4 °C -11.2 °C 34669.3 hPa Calm     91 % 0 mm 0.0 W/m2 CLR
22:51 -10.4 °C -11.2 °C 34669.3 hPa Calm     91 % 0 mm 0.0 W/m2 CLR
22:56 -10.4 °C -11.3 °C 34669.3 hPa Calm     90 % 0 mm 0.0 W/m2 CLR
23:01 -10.1 °C -10.9 °C 34669.3 hPa Calm     90 % 0 mm 0.0 W/m2 CLR
23:06 -10.1 °C -10.9 °C 34669.3 hPa Calm     90 % 0 mm 0.0 W/m2 CLR
23:11 -10.1 °C -10.9 °C 34669.3 hPa Calm     91 % 0 mm 0.0 W/m2 CLR
23:16 -10.1 °C -10.9 °C 34669.3 hPa Calm     91 % 0 mm 0.0 W/m2 CLR
23:21 -10.4 °C -11.2 °C 34669.3 hPa Calm     91 % 0 mm 0.0 W/m2 CLR
23:26 -10.4 °C -11.2 °C 34669.3 hPa Calm     91 % 0 mm 0.0 W/m2 CLR
23:31 -10.4 °C -11.2 °C 34669.3 hPa Calm     91 % 0 mm 0.0 W/m2 CLR
23:32 -10.4 °C -11.2 °C 34669.3 hPa Calm     91 % 0 mm 0.0 W/m2 CLR
23:37 -10.4 °C -11.2 °C 34669.3 hPa Calm     91 % 0 mm 0.0 W/m2 CLR
23:42 -10.4 °C -11.2 °C 34669.3 hPa Calm     91 % 0 mm 0.0 W/m2 CLR
23:47 -10.4 °C -11.2 °C 34669.3 hPa Calm     91 % 0 mm 0.0 W/m2 CLR
23:52 -10.4 °C -11.2 °C 34669.3 hPa Calm     91 % 0 mm 0.0 W/m2 CLR
23:57 -10.4 °C -11.2 °C 34669.3 hPa Calm     91 % 0 mm 0.0 W/m2 CLR
Lo Temps de Massalio
Compliments of Weather Underground - 1.25 mb